This is the latest recevied weather packets stored in our database for station/object KQ4OSL. If no packets are shown the sender has not sent any weather packets the latest 10 day(s).
| Time | Temp. | Humidity | Pressure | Rain* | Wind** | Luminosity | Snow |
|---|---|---|---|---|---|---|---|
| 1788042808 | 29.44° C | 76% | 1020.9 hPa | 0 mm | - | 51 W/m² | - |
| 1788042507 | 29.44° C | 73% | 1020.9 hPa | 0 mm | - | 72 W/m² | - |
| 1788042202 | 29.44° C | 74% | 1020.6 hPa | 0 mm | - | 86 W/m² | - |
| 1788041898 | 29.44° C | 74% | 1020.8 hPa | 0 mm | - | 71 W/m² | - |
| 1788041593 | 29.44° C | 76% | 1020.7 hPa | 0 mm | - | 75 W/m² | - |
| 1788041293 | 29.44° C | 74% | 1020.7 hPa | 0 mm | - | 66 W/m² | - |
| 1788040991 | 30° C | 74% | 1020.8 hPa | 0 mm | - | 137 W/m² | - |
| 1788040690 | 30° C | 73% | 1020.7 hPa | 0 mm | - | 172 W/m² | - |
| 1788040385 | 30° C | 75% | 1020.5 hPa | 0 mm | - | 197 W/m² | - |
| 1788040081 | 30° C | 73% | 1020.5 hPa | 0 mm | - | 209 W/m² | - |
| 1788039775 | 30.56° C | 73% | 1020.6 hPa | 0 mm | - | 225 W/m² | - |
| 1788039470 | 30.56° C | 74% | 1020.6 hPa | 0 mm | - | 232 W/m² | - |
| 1788039166 | 30° C | 73% | 1020.8 hPa | 0 mm | - | 249 W/m² | - |
| 1788038861 | 30.56° C | 75% | 1020.5 hPa | 0 mm | - | 253 W/m² | - |
| 1788038556 | 30.56° C | 73% | 1020.7 hPa | 0 mm | - | 270 W/m² | - |
| 1788038255 | 30.56° C | 72% | 1020.8 hPa | 0 mm | - | 305 W/m² | - |
| 1788037951 | 30.56° C | 74% | 1020.6 hPa | 0 mm | - | 316 W/m² | - |
| 1788037651 | 30° C | 72% | 1020.7 hPa | 0 mm | - | 331 W/m² | - |
| 1788037346 | 30.56° C | 72% | 1020.8 hPa | 0 mm | - | 348 W/m² | - |
| 1788037045 | 30.56° C | 73% | 1020.9 hPa | 0 mm | - | 363 W/m² | - |
| 1788036741 | 30° C | 73% | 1020.8 hPa | 0 mm | - | 375 W/m² | - |
| 1788036438 | 30.56° C | 74% | 1020.9 hPa | 0 mm | - | 385 W/m² | - |
| 1788036133 | 30.56° C | 76% | 1020.9 hPa | 0 mm | - | 331 W/m² | - |
| 1788035832 | 30.56° C | 72% | 1021.1 hPa | 0 mm | - | 420 W/m² | - |
| 1788035527 | 30° C | 76% | 1021 hPa | 0 mm | - | 431 W/m² | - |
* Rain latest hour (hover to see other rain measurements)
** Current wind speed in m/s (hover to see current wind gust speed)